createdAt,value
2023-04-10T00:00:14.642Z,101059.48
2023-04-10T00:02:21.616Z,101054.63
2023-04-10T00:04:29.111Z,101057.84
2023-04-10T00:06:37.124Z,101060.27
2023-04-10T00:08:43.707Z,101058.68
2023-04-10T00:10:51.180Z,101054.41
2023-04-10T00:12:57.880Z,101054.78
2023-04-10T00:15:04.330Z,101052.02
2023-04-10T00:17:11.232Z,101051.02
2023-04-10T00:19:18.098Z,101051.45
2023-04-10T00:21:25.163Z,101050.94
2023-04-10T00:23:31.492Z,101051.41
2023-04-10T00:25:38.220Z,101049.92
2023-04-10T00:27:44.928Z,101049.91
2023-04-10T00:29:51.962Z,101045.91
2023-04-10T00:31:58.262Z,101051.14
2023-04-10T00:34:05.889Z,101049.57
2023-04-10T00:36:12.581Z,101049.8
2023-04-10T00:38:19.142Z,101049.2
2023-04-10T00:40:25.225Z,101050.25
2023-04-10T00:42:31.974Z,101052.39
2023-04-10T00:44:38.351Z,101047.23
2023-04-10T00:46:44.672Z,101049.66
2023-04-10T00:48:51.497Z,101051.72
2023-04-10T00:50:58.217Z,101052.68
2023-04-10T00:53:08.145Z,101055.91
2023-04-10T00:55:14.385Z,101057.83
2023-04-10T00:57:21.084Z,101058.89
2023-04-10T00:59:28.110Z,101062.03
2023-04-10T01:01:34.307Z,101061.68
2023-04-10T01:03:41.740Z,101063.39
2023-04-10T01:05:48.514Z,101062.97
2023-04-10T01:07:55.356Z,101065.53
2023-04-10T01:10:01.936Z,101065.72
2023-04-10T01:12:08.099Z,101065.41
2023-04-10T01:14:15.047Z,101071
2023-04-10T01:16:21.783Z,101068.72
2023-04-10T01:18:28.044Z,101073.19
2023-04-10T01:20:34.425Z,101067.75
2023-04-10T01:22:41.122Z,101064.65
2023-04-10T01:24:47.687Z,101066.38
2023-04-10T01:26:55.277Z,101068.84
2023-04-10T01:29:02.221Z,101064.34
2023-04-10T01:31:09.035Z,101068.69
2023-04-10T01:33:16.655Z,101067.29
2023-04-10T01:35:23.298Z,101069.64
2023-04-10T01:37:30.419Z,101068.55
2023-04-10T01:39:37.351Z,101066.8
2023-04-10T01:41:44.153Z,101066.95
2023-04-10T01:43:50.940Z,101061.3
2023-04-10T01:45:58.479Z,101063.28
2023-04-10T01:48:04.773Z,101061.41
2023-04-10T01:50:11.411Z,101061.14
2023-04-10T01:52:18.891Z,101057.73
2023-04-10T01:54:27.385Z,101061.7
2023-04-10T01:56:34.375Z,101058.72
2023-04-10T01:58:40.732Z,101065.59
2023-04-10T02:00:47.142Z,101067.53
2023-04-10T02:02:54.245Z,101065.97
2023-04-10T02:05:01.528Z,101065.67
2023-04-10T02:07:08.440Z,101061.1
2023-04-10T02:09:15.130Z,101062.98
2023-04-10T02:11:21.655Z,101062.11
2023-04-10T02:13:28.535Z,101059.91
2023-04-10T02:15:35.196Z,101062.88
2023-04-10T02:17:42.200Z,101058.77
2023-04-10T02:19:48.621Z,101059.05
2023-04-10T02:21:55.716Z,101058.36
2023-04-10T02:24:03.679Z,101054.23
2023-04-10T02:26:10.185Z,101055.72
2023-04-10T02:28:16.200Z,101055.19
2023-04-10T02:30:23.148Z,101058.2
2023-04-10T02:32:29.640Z,101066.03
2023-04-10T02:34:36.885Z,101067.27
2023-04-10T02:36:43.183Z,101067.91
2023-04-10T02:38:49.614Z,101066.83
2023-04-10T02:40:56.475Z,101068.7
2023-04-10T02:43:03.458Z,101071.06
2023-04-10T02:45:09.817Z,101068.41
2023-04-10T02:47:16.543Z,101072.52
2023-04-10T02:49:24.675Z,101070.83
2023-04-10T02:51:30.880Z,101066.99
2023-04-10T02:53:37.594Z,101066.02
2023-04-10T02:55:44.569Z,101063.74
2023-04-10T02:57:51.116Z,101064.59
2023-04-10T02:59:57.348Z,101065.47
2023-04-10T03:02:04.271Z,101063.39
2023-04-10T03:04:12.180Z,101061.38
2023-04-10T03:06:19.692Z,101061.59
2023-04-10T03:08:26.564Z,101061.16
2023-04-10T03:10:32.943Z,101060.66
2023-04-10T03:12:39.291Z,101067.4
2023-04-10T03:14:45.961Z,101068.3
2023-04-10T03:16:52.312Z,101068.03
2023-04-10T03:18:59.492Z,101072.11
2023-04-10T03:21:05.844Z,101070.84
2023-04-10T03:23:12.050Z,101063.47
2023-04-10T03:25:19.305Z,101066.73
2023-04-10T03:27:25.624Z,101065.47
2023-04-10T03:29:32.256Z,101067.91
2023-04-10T03:31:42.255Z,101067.34
2023-04-10T03:33:49.353Z,101070.99
2023-04-10T03:35:57.059Z,101069.13
2023-04-10T03:38:04.028Z,101067.78
2023-04-10T03:40:10.598Z,101065.3
2023-04-10T03:42:17.262Z,101063.46
2023-04-10T03:44:24.239Z,101063.05
2023-04-10T03:46:31.340Z,101066.98
2023-04-10T03:48:37.833Z,101064.1
2023-04-10T03:50:44.342Z,101061.02
2023-04-10T03:52:50.926Z,101064.99
2023-04-10T03:54:57.895Z,101065.47
2023-04-10T03:57:05.345Z,101069.22
2023-04-10T03:59:12.158Z,101068.92
2023-04-10T04:01:18.607Z,101065.72
2023-04-10T04:03:25.940Z,101067.83
2023-04-10T04:05:34.754Z,101072.07
2023-04-10T04:07:41.278Z,101074.02
2023-04-10T04:09:47.420Z,101074.11
2023-04-10T04:11:53.833Z,101077.27
2023-04-10T04:13:59.965Z,101077.55
2023-04-10T04:16:06.219Z,101078.86
2023-04-10T04:18:12.852Z,101078.67
2023-04-10T04:20:19.063Z,101077.67
2023-04-10T04:22:25.465Z,101077.48
2023-04-10T04:24:31.777Z,101078.36
2023-04-10T04:26:38.008Z,101081.39
2023-04-10T04:28:44.791Z,101077.08
2023-04-10T04:30:51.362Z,101083.58
2023-04-10T04:32:57.667Z,101086.45
2023-04-10T04:35:04.161Z,101089.31
2023-04-10T04:37:10.519Z,101087.33
2023-04-10T04:39:17.079Z,101086.7
2023-04-10T04:41:23.191Z,101091.24
2023-04-10T04:43:29.733Z,101095.09
2023-04-10T04:45:36.287Z,101091.55
2023-04-10T04:47:42.729Z,101089.33
2023-04-10T04:49:49.347Z,101092.33
2023-04-10T04:51:55.652Z,101097.41
2023-04-10T04:54:01.930Z,101101.84
2023-04-10T04:56:08.384Z,101099.39
2023-04-10T04:58:15.300Z,101104.09
2023-04-10T05:00:21.677Z,101106.86
2023-04-10T05:02:28.236Z,101105.25
2023-04-10T05:04:35.190Z,101110.41
2023-04-10T05:06:41.871Z,101110.91
2023-04-10T05:08:48.270Z,101111
2023-04-10T05:10:55.008Z,101121.81
2023-04-10T05:13:01.587Z,101120.47
2023-04-10T05:15:07.929Z,101124.05
2023-04-10T05:17:14.705Z,101130.14
2023-04-10T05:19:21.275Z,101130.89
2023-04-10T05:21:27.751Z,101133.73
2023-04-10T05:23:34.476Z,101134.36
2023-04-10T05:25:41.169Z,101130.69
2023-04-10T05:27:47.450Z,101136
2023-04-10T05:29:53.803Z,101138.19
2023-04-10T05:32:00.016Z,101138.2
2023-04-10T05:34:06.356Z,101136.84
2023-04-10T05:36:13.446Z,101139.58
2023-04-10T05:38:19.949Z,101137.09
2023-04-10T05:40:26.736Z,101141.04
2023-04-10T05:42:33.594Z,101136.89
2023-04-10T05:44:40.397Z,101138.61
2023-04-10T05:46:46.859Z,101140.39
2023-04-10T05:48:54.523Z,101138.48
2023-04-10T05:51:02.113Z,101138.13
2023-04-10T05:53:08.594Z,101138.54
2023-04-10T05:55:14.954Z,101137.34
2023-04-10T05:57:21.370Z,101140.13
2023-04-10T05:59:27.667Z,101134.48
2023-04-10T06:01:34.259Z,101136.23
2023-04-10T06:03:41.148Z,101136.09
2023-04-10T06:05:48.409Z,101140.63
2023-04-10T06:07:57.678Z,101134
2023-04-10T06:10:04.621Z,101131.59
2023-04-10T06:12:11.153Z,101138.11
2023-04-10T06:14:17.550Z,101136.17
2023-04-10T06:16:24.163Z,101139.23
2023-04-10T06:18:31.274Z,101142.13
2023-04-10T06:20:37.973Z,101142.82
2023-04-10T06:22:44.317Z,101147.11
2023-04-10T06:24:51.112Z,101142.2
2023-04-10T06:26:58.400Z,101146.16
2023-04-10T06:29:05.360Z,101141.09
2023-04-10T06:31:11.967Z,101142.78
2023-04-10T06:33:32.639Z,101132.05
2023-04-10T06:35:39.606Z,101128.19
2023-04-10T06:37:46.577Z,101125.03
2023-04-10T06:39:53.307Z,101120.77
2023-04-10T06:42:00.354Z,101113.3
2023-04-10T06:44:07.697Z,101115.75
2023-04-10T06:46:14.534Z,101113.55
2023-04-10T06:48:21.288Z,101117.16
2023-04-10T06:50:28.002Z,101116.3
2023-04-10T06:52:37.350Z,101114.42
2023-04-10T06:54:44.480Z,101115.29
2023-04-10T06:56:51.656Z,101110.64
2023-04-10T06:58:58.126Z,101109.35
2023-04-10T07:01:06.099Z,101113.75
2023-04-10T07:03:12.918Z,101117.59
2023-04-10T07:05:19.418Z,101113.22
2023-04-10T07:07:26.278Z,101115.63
2023-04-10T07:09:32.767Z,101114.17
2023-04-10T07:11:39.862Z,101116
2023-04-10T07:13:47.414Z,101114.67
2023-04-10T07:15:54.209Z,101115.91
2023-04-10T07:18:01.913Z,101116.06
2023-04-10T07:20:10.183Z,101115.71
2023-04-10T07:22:16.923Z,101113.53
2023-04-10T07:24:23.340Z,101114.75
2023-04-10T07:26:29.881Z,101109.87
2023-04-10T07:28:36.414Z,101109.83
2023-04-10T07:30:43.394Z,101106.31
2023-04-10T07:32:50.566Z,101111.67
2023-04-10T07:34:58.044Z,101111.8
2023-04-10T07:37:04.863Z,101112.42
2023-04-10T07:39:11.623Z,101108.8
2023-04-10T07:41:18.608Z,101110.48
2023-04-10T07:43:25.062Z,101107.14
2023-04-10T07:45:31.858Z,101109.77
2023-04-10T07:47:38.748Z,101107.26
2023-04-10T07:49:45.467Z,101106.67
2023-04-10T07:51:51.913Z,101111.78
2023-04-10T07:53:59.905Z,101113.9
2023-04-10T07:56:07.096Z,101111.59
2023-04-10T07:58:14.197Z,101109.77
2023-04-10T08:00:21.004Z,101104.3
2023-04-10T08:02:28.171Z,101105.55
2023-04-10T08:04:36.140Z,101105.55
2023-04-10T08:06:43.206Z,101103.81
2023-04-10T08:08:50.131Z,101102.64
2023-04-10T08:10:57.257Z,101100.81
2023-04-10T08:13:04.153Z,101097.54
2023-04-10T08:15:10.626Z,101094.14
2023-04-10T08:17:17.383Z,101092.59
2023-04-10T08:19:24.468Z,101089.44
2023-04-10T08:21:32.235Z,101087.59
2023-04-10T08:23:39.252Z,101090.86
2023-04-10T08:25:46.099Z,101090.01
2023-04-10T08:27:52.475Z,101091.88
2023-04-10T08:29:59.684Z,101087.3
2023-04-10T08:32:06.081Z,101087.86
2023-04-10T08:34:12.564Z,101082.86
2023-04-10T08:36:21.643Z,101078.84
2023-04-10T08:38:28.714Z,101081.55
2023-04-10T08:40:34.987Z,101082.45
2023-04-10T08:42:41.459Z,101081
2023-04-10T08:44:48.211Z,101079.47
2023-04-10T08:46:54.738Z,101076.62
2023-04-10T08:49:01.581Z,101070
2023-04-10T08:51:15.485Z,101068.86
2023-04-10T08:53:31.235Z,101070.34
2023-04-10T08:55:38.080Z,101066.97
2023-04-10T08:57:57.938Z,101073.92
2023-04-10T09:00:24.215Z,101071.65
2023-04-10T09:02:32.536Z,101064.86
2023-04-10T09:04:42.883Z,101065.41
2023-04-10T09:06:51.432Z,101063.98
2023-04-10T09:11:06.610Z,101057.39
2023-04-10T09:13:13.725Z,101060.64
2023-04-10T09:15:21.430Z,101059.23
2023-04-10T09:17:29.543Z,101059.17
2023-04-10T09:19:37.907Z,101052.09
2023-04-10T09:21:44.660Z,101053.17
2023-04-10T09:23:51.961Z,101053.77
2023-04-10T09:26:00.158Z,101050.74
2023-04-10T09:28:07.263Z,101051.16
2023-04-10T09:30:13.787Z,101050.95
2023-04-10T09:32:21.216Z,101046.86
2023-04-10T09:34:28.267Z,101039.02
2023-04-10T09:36:34.737Z,101039.77
2023-04-10T09:38:41.307Z,101044.31
2023-04-10T09:40:47.634Z,101038.44
2023-04-10T09:42:56.129Z,101037.28
2023-04-10T09:45:05.536Z,101040.33
2023-04-10T09:47:12.513Z,101033.79
2023-04-10T09:49:22.010Z,101037.11
2023-04-10T09:51:30.324Z,101036.38
2023-04-10T09:53:38.328Z,101029.09
2023-04-10T09:55:45.115Z,101035.4
2023-04-10T09:57:52.279Z,101031.17
2023-04-10T09:59:59.580Z,101037.63
2023-04-10T10:02:06.517Z,101026.33
2023-04-10T10:04:14.429Z,101018.38
2023-04-10T10:06:22.088Z,101019.44
2023-04-10T10:08:28.363Z,101014.56
2023-04-10T10:10:36.110Z,101016.38
2023-04-10T10:12:43.425Z,101014.21
2023-04-10T10:14:50.334Z,101010.48
2023-04-10T10:16:56.816Z,101006.42
2023-04-10T10:19:03.389Z,101005.44
2023-04-10T10:21:10.622Z,101002.51
2023-04-10T10:23:16.740Z,100996.3
2023-04-10T10:25:23.912Z,100991.92
2023-04-10T10:27:31.381Z,100990.36
2023-04-10T10:29:37.723Z,100987.21
2023-04-10T10:31:44.132Z,100984.92
2023-04-10T10:33:50.684Z,100987.58
2023-04-10T10:35:57.821Z,100984.93
2023-04-10T10:38:05.466Z,100983.66
2023-04-10T10:40:13.881Z,100976.23
2023-04-10T10:42:21.179Z,100974.03
2023-04-10T10:44:27.401Z,100975.7
2023-04-10T10:46:34.087Z,100971.66
2023-04-10T10:48:42.161Z,100973.41
2023-04-10T10:50:50.880Z,100968.02
2023-04-10T10:52:58.879Z,100970.55
2023-04-10T10:55:06.531Z,100971.98
2023-04-10T10:57:13.978Z,100967.48
2023-04-10T10:59:21.286Z,100966.39
2023-04-10T11:01:29.024Z,100964.68
2023-04-10T11:03:36.601Z,100963.64
2023-04-10T11:05:46.561Z,100961.69
2023-04-10T11:07:54.143Z,100958.94
2023-04-10T11:10:01.186Z,100954.02
2023-04-10T11:12:08.366Z,100951.61
2023-04-10T11:14:15.013Z,100952.19
2023-04-10T11:16:22.226Z,100944.67
2023-04-10T11:18:28.583Z,100948.73
2023-04-10T11:20:35.416Z,100944.47
2023-04-10T11:22:42.150Z,100937.56
2023-04-10T11:24:49.849Z,100936.78
2023-04-10T11:26:57.673Z,100932.41
2023-04-10T11:29:05.243Z,100934.91
2023-04-10T11:31:12.211Z,100933.98
2023-04-10T11:33:19.342Z,100930.14
2023-04-10T11:35:25.928Z,100931.67
2023-04-10T11:37:33.163Z,100927.36
2023-04-10T11:39:39.964Z,100922.55
2023-04-10T11:41:47.709Z,100915.99
2023-04-10T11:43:55.038Z,100919.8
2023-04-10T11:46:03.851Z,100909.03
2023-04-10T11:48:13.581Z,100904.62
2023-04-10T11:50:20.660Z,100902.03
2023-04-10T11:52:28.206Z,100905.52
2023-04-10T11:54:35.247Z,100898.42
2023-04-10T11:56:45.008Z,100899.15
2023-04-10T11:58:57.143Z,100895.32
2023-04-10T12:04:21.602Z,100889.5
2023-04-10T12:06:31.875Z,100888.8
2023-04-10T12:08:39.094Z,100887.77
2023-04-10T12:10:47.005Z,100881.58
2023-04-10T12:12:54.043Z,100875.4
2023-04-10T12:15:00.848Z,100871.45
2023-04-10T12:17:07.718Z,100868.31
2023-04-10T12:19:14.284Z,100865.44
2023-04-10T12:21:22.454Z,100865.92
2023-04-10T12:23:30.072Z,100863.58
2023-04-10T12:25:37.102Z,100858.48
2023-04-10T12:27:44.995Z,100859.95
2023-04-10T12:29:52.564Z,100857.86
2023-04-10T12:32:00.264Z,100854.2
2023-04-10T12:34:09.249Z,100854.53
2023-04-10T12:36:17.806Z,100853.7
2023-04-10T12:38:27.132Z,100847.38
2023-04-10T12:40:35.529Z,100849.36
2023-04-10T12:42:50.923Z,100845.84
2023-04-10T12:45:04.358Z,100839.92
2023-04-10T12:47:16.407Z,100839.73
2023-04-10T12:49:25.690Z,100836.91
2023-04-10T12:51:33.729Z,100839.44
2023-04-10T12:53:41.798Z,100835.87
2023-04-10T12:55:50.277Z,100828.84
2023-04-10T12:57:57.199Z,100831.36
2023-04-10T13:00:03.734Z,100826.48
2023-04-10T13:02:11.281Z,100828.58
2023-04-10T13:04:19.353Z,100826.23
2023-04-10T13:06:27.143Z,100822.28
2023-04-10T13:08:33.772Z,100818.55
2023-04-10T13:10:41.055Z,100819.13
2023-04-10T13:12:49.190Z,100818.63
2023-04-10T13:14:57.567Z,100817.78
2023-04-10T13:17:05.029Z,100816.22
2023-04-10T13:19:12.025Z,100815.6
2023-04-10T13:21:18.908Z,100810.45
2023-04-10T13:23:26.006Z,100809.88
2023-04-10T13:25:34.444Z,100805.93
2023-04-10T13:27:42.400Z,100806.72
2023-04-10T13:29:51.362Z,100812.36
2023-04-10T13:31:58.996Z,100812.2
2023-04-10T13:34:08.162Z,100811.96
2023-04-10T13:36:22.556Z,100811.86
2023-04-10T13:38:32.309Z,100807.67
2023-04-10T13:40:40.459Z,100805.55
2023-04-10T13:42:50.481Z,100803.58
2023-04-10T13:44:57.874Z,100801.98
2023-04-10T13:47:04.508Z,100800.54
2023-04-10T13:49:12.003Z,100802.56
2023-04-10T13:51:19.737Z,100795.27
2023-04-10T13:53:28.949Z,100798.14
2023-04-10T13:55:36.449Z,100792.75
2023-04-10T13:57:45.162Z,100789.38
2023-04-10T13:59:52.526Z,100792.34
2023-04-10T14:01:59.223Z,100785.97
2023-04-10T14:04:06.144Z,100786.14
2023-04-10T14:06:13.152Z,100787.68
2023-04-10T14:08:19.911Z,100783.83
2023-04-10T14:10:26.760Z,100780.43
2023-04-10T14:12:34.722Z,100779.94
2023-04-10T14:14:43.802Z,100772.73
2023-04-10T14:16:50.467Z,100770.52
2023-04-10T14:18:57.341Z,100769.89
2023-04-10T14:21:04.372Z,100770.36
2023-04-10T14:23:11.026Z,100766.59
2023-04-10T14:25:18.574Z,100760.77
2023-04-10T14:27:27.096Z,100768.88
2023-04-10T14:29:44.932Z,100763.61
2023-04-10T14:32:03.688Z,100761.88
2023-04-10T14:34:12.544Z,100759.95
2023-04-10T14:36:20.979Z,100763.72
2023-04-10T14:38:30.113Z,100759.29
2023-04-10T14:40:38.186Z,100763.66
2023-04-10T14:42:45.584Z,100762.28
2023-04-10T14:44:53.575Z,100766.03
2023-04-10T14:47:01.737Z,100763.91
2023-04-10T14:49:12.129Z,100768.31
2023-04-10T14:51:21.187Z,100763.73
2023-04-10T14:53:29.609Z,100764.7
2023-04-10T14:55:38.615Z,100763.03
2023-04-10T14:57:47.116Z,100760.55
2023-04-10T14:59:54.860Z,100761.39
2023-04-10T15:02:02.733Z,100759.12
2023-04-10T15:04:10.751Z,100760.62
2023-04-10T15:06:18.206Z,100758.17
2023-04-10T15:08:25.969Z,100756.94
2023-04-10T15:10:34.479Z,100752.6
2023-04-10T15:12:42.317Z,100750.02
2023-04-10T15:14:51.015Z,100748.34
2023-04-10T15:16:59.269Z,100746.98
2023-04-10T15:19:07.684Z,100743.8
2023-04-10T15:21:15.916Z,100739.14
2023-04-10T15:23:24.254Z,100743.38
2023-04-10T15:25:31.882Z,100739.27
2023-04-10T15:27:39.162Z,100735.47
2023-04-10T15:29:46.345Z,100733.02
2023-04-10T15:31:53.959Z,100733.14
2023-04-10T15:34:01.169Z,100727.89
2023-04-10T15:36:07.674Z,100725.74
2023-04-10T15:38:15.047Z,100722.41
2023-04-10T15:40:22.768Z,100719.38
2023-04-10T15:42:32.597Z,100720.12
2023-04-10T15:44:40.049Z,100721.71
2023-04-10T15:47:14.928Z,100721.33
2023-04-10T15:49:38.927Z,100722.47
2023-04-10T15:51:46.839Z,100721.82
2023-04-10T15:54:02.596Z,100719.16
2023-04-10T15:56:23.068Z,100724.03
2023-04-10T15:58:32.199Z,100716.06
2023-04-10T16:00:39.552Z,100723
2023-04-10T16:02:49.162Z,100720.78
2023-04-10T16:04:58.933Z,100720.73
2023-04-10T16:07:08.541Z,100718.89
2023-04-10T16:09:27.516Z,100717.84
2023-04-10T16:11:46.932Z,100715.98
2023-04-10T16:14:02.431Z,100716.45
2023-04-10T16:16:10.560Z,100715.33
2023-04-10T16:18:19.422Z,100716.92
2023-04-10T16:20:29.107Z,100719.84
2023-04-10T16:22:39.905Z,100711.59
2023-04-10T16:24:52.861Z,100705.62
2023-04-10T16:27:01.532Z,100704.2
2023-04-10T16:29:12.174Z,100698.84
2023-04-10T16:31:21.582Z,100702.43
2023-04-10T16:33:30.038Z,100701.66
2023-04-10T16:35:39.151Z,100701.64
2023-04-10T16:37:47.808Z,100702.18
2023-04-10T16:39:57.580Z,100700.96
2023-04-10T16:42:09.730Z,100697.89
2023-04-10T16:44:17.817Z,100692.34
2023-04-10T16:46:25.748Z,100688.63
2023-04-10T16:48:36.348Z,100688.39
2023-04-10T16:50:43.240Z,100690.31
2023-04-10T16:52:50.001Z,100693.28
2023-04-10T16:54:56.683Z,100689.44
2023-04-10T16:57:03.626Z,100690.83
2023-04-10T16:59:10.373Z,100689.47
2023-04-10T17:01:17.661Z,100691.55
2023-04-10T17:03:25.383Z,100691.07
2023-04-10T17:05:32.273Z,100685.97
2023-04-10T17:07:41.405Z,100686.38
2023-04-10T17:09:50.498Z,100689.95
2023-04-10T17:11:59.849Z,100695.73
2023-04-10T17:14:06.437Z,100701.2
2023-04-10T17:16:13.537Z,100697.64
2023-04-10T17:18:20.220Z,100700.13
2023-04-10T17:20:26.983Z,100701.37
2023-04-10T17:22:33.683Z,100702.45
2023-04-10T17:24:41.460Z,100700.61
2023-04-10T17:26:48.377Z,100702.2
2023-04-10T17:28:56.304Z,100706.26
2023-04-10T17:31:04.423Z,100706.08
2023-04-10T17:33:14.830Z,100710.3
2023-04-10T17:35:21.481Z,100705.05
2023-04-10T17:37:28.869Z,100707.34
2023-04-10T17:39:36.277Z,100710.63
2023-04-10T17:41:43.244Z,100711.11
2023-04-10T17:43:51.084Z,100713.31
2023-04-10T17:45:58.168Z,100709.64
2023-04-10T17:48:07.275Z,100705.33
2023-04-10T17:50:15.521Z,100707.73
2023-04-10T17:52:25.315Z,100708.81
2023-04-10T17:54:46.835Z,100708.73
2023-04-10T17:56:53.720Z,100708.76
2023-04-10T17:59:00.982Z,100702.19
2023-04-10T18:01:08.473Z,100701.83
2023-04-10T18:03:18.062Z,100699.29
2023-04-10T18:05:25.147Z,100700.61
2023-04-10T18:07:32.535Z,100697.46
2023-04-10T18:09:44.544Z,100700.96
2023-04-10T18:11:54.599Z,100702.07
2023-04-10T18:14:04.225Z,100700.91
2023-04-10T18:16:14.672Z,100703.33
2023-04-10T18:18:28.115Z,100705.5
2023-04-10T18:20:36.190Z,100704.63
2023-04-10T18:22:44.881Z,100706.34
2023-04-10T18:24:52.013Z,100703.13
2023-04-10T18:27:00.202Z,100705.74
2023-04-10T18:29:08.810Z,100707.84
2023-04-10T18:31:16.266Z,100709.63
2023-04-10T18:33:25.730Z,100709.9
2023-04-10T18:35:33.013Z,100705.32
2023-04-10T18:37:41.582Z,100708.16
2023-04-10T18:39:48.413Z,100710.03
2023-04-10T18:41:56.316Z,100708.58
2023-04-10T18:44:10.042Z,100713.33
2023-04-10T18:46:21.095Z,100711.09
2023-04-10T18:48:27.981Z,100707.39
2023-04-10T18:50:36.873Z,100709
2023-04-10T18:52:44.806Z,100709.34
2023-04-10T18:54:52.729Z,100705.77
2023-04-10T18:57:06.363Z,100709.95
2023-04-10T18:59:18.207Z,100703.62
2023-04-10T19:01:26.821Z,100706.96
2023-04-10T19:03:37.156Z,100705.67
2023-04-10T19:05:49.210Z,100700.45
2023-04-10T19:08:05.618Z,100696.3
2023-04-10T19:10:14.205Z,100697.59
2023-04-10T19:12:21.528Z,100699.72
2023-04-10T19:14:30.184Z,100699.17
2023-04-10T19:16:38.911Z,100701.22
2023-04-10T19:18:48.239Z,100697.63
2023-04-10T19:21:08.657Z,100697.8
2023-04-10T19:23:24.357Z,100697.3
2023-04-10T19:25:37.779Z,100698.41
2023-04-10T19:27:45.475Z,100696.83
2023-04-10T19:29:55.809Z,100703.58
2023-04-10T19:32:04.883Z,100697.05
2023-04-10T19:34:18.856Z,100698.47
2023-04-10T19:36:34.969Z,100691.34
2023-04-10T19:38:46.656Z,100689.58
2023-04-10T19:40:54.500Z,100688.06
2023-04-10T19:43:08.492Z,100688.43
2023-04-10T19:45:16.194Z,100691.57
2023-04-10T19:47:24.046Z,100688.88
2023-04-10T19:49:42.638Z,100685.73
2023-04-10T19:51:50.984Z,100681.03
2023-04-10T19:53:59.216Z,100676.61
2023-04-10T19:56:12.627Z,100674.77
2023-04-10T19:58:41.841Z,100669.16
2023-04-10T20:00:55.338Z,100669.48
2023-04-10T20:03:06.737Z,100665.48
2023-04-10T20:05:15.272Z,100670.91
2023-04-10T20:07:25.861Z,100669.23
2023-04-10T20:09:41.013Z,100667.8
2023-04-10T20:11:50.186Z,100667.17
2023-04-10T20:13:59.755Z,100666.5
2023-04-10T20:16:09.137Z,100667.1
2023-04-10T20:18:21.759Z,100661.14
2023-04-10T20:20:28.953Z,100661
2023-04-10T20:22:38.471Z,100654.34
2023-04-10T20:24:50.085Z,100657.27
2023-04-10T20:26:57.203Z,100656.78
2023-04-10T20:29:04.108Z,100658.38
2023-04-10T20:31:17.007Z,100657.03
2023-04-10T20:33:24.231Z,100656.66
2023-04-10T20:35:41.562Z,100657.53
2023-04-10T20:37:49.309Z,100658.23
2023-04-10T20:39:58.536Z,100652.35
2023-04-10T20:42:07.005Z,100650.98
2023-04-10T20:44:14.155Z,100653.55
2023-04-10T20:46:21.430Z,100654.05
2023-04-10T20:48:34.305Z,100656.02
2023-04-10T20:50:45.234Z,100655.44
2023-04-10T20:52:51.803Z,100653.47
2023-04-10T20:54:59.018Z,100656.59
2023-04-10T20:57:10.591Z,100653.02
2023-04-10T20:59:18.937Z,100650.22
2023-04-10T21:01:26.190Z,100649.48
2023-04-10T21:03:38.441Z,100651.86
2023-04-10T21:05:45.712Z,100652.97
2023-04-10T21:07:55.724Z,100652.92
2023-04-10T21:10:02.463Z,100654.37
2023-04-10T21:12:10.699Z,100658.59
2023-04-10T21:14:17.580Z,100654.23
2023-04-10T21:16:25.626Z,100655.47
2023-04-10T21:18:32.684Z,100648.31
2023-04-10T21:20:39.556Z,100649
2023-04-10T21:22:49.501Z,100645.45
2023-04-10T21:24:57.465Z,100646.03
2023-04-10T21:27:04.522Z,100641.95
2023-04-10T21:29:11.218Z,100640.77
2023-04-10T21:31:18.962Z,100636.63
2023-04-10T21:33:29.624Z,100631.71
2023-04-10T21:35:46.951Z,100627.31
2023-04-10T21:37:54.951Z,100629.72
2023-04-10T21:40:07.388Z,100630.72
2023-04-10T21:42:14.583Z,100629.45
2023-04-10T21:44:21.442Z,100629.81
2023-04-10T21:46:30.799Z,100633.26
2023-04-10T21:48:38.008Z,100632.87
2023-04-10T21:50:45.304Z,100636.45
2023-04-10T21:52:54.932Z,100630.69
2023-04-10T21:55:02.650Z,100634.98
2023-04-10T21:57:12.844Z,100632.22
2023-04-10T21:59:22.430Z,100632.8
2023-04-10T22:01:32.379Z,100631.69
2023-04-10T22:03:39.369Z,100629.47
2023-04-10T22:05:46.694Z,100629.86
2023-04-10T22:07:56.064Z,100626.11
2023-04-10T22:10:06.032Z,100625.17
2023-04-10T22:12:21.163Z,100622.14
2023-04-10T22:14:28.711Z,100618.91
2023-04-10T22:16:36.027Z,100613.97
2023-04-10T22:18:43.491Z,100610.81
2023-04-10T22:20:53.402Z,100607.7
2023-04-10T22:23:00.309Z,100601.45
2023-04-10T22:25:11.467Z,100604.6
2023-04-10T22:27:20.784Z,100606.91
2023-04-10T22:29:28.312Z,100604.05
2023-04-10T22:31:34.960Z,100602.97
2023-04-10T22:33:44.695Z,100605.28
2023-04-10T22:35:54.435Z,100600.45
2023-04-10T22:38:09.741Z,100601.56
2023-04-10T22:40:16.505Z,100595
2023-04-10T22:42:23.411Z,100594.59
2023-04-10T22:44:35.166Z,100593.77
2023-04-10T22:46:42.222Z,100589.98
2023-04-10T22:48:54.458Z,100588.97
2023-04-10T22:51:05.396Z,100588.88
2023-04-10T22:53:12.088Z,100586.32
2023-04-10T22:55:21.414Z,100580.32
2023-04-10T22:57:28.897Z,100575.34
2023-04-10T22:59:41.755Z,100576.79
2023-04-10T23:01:48.707Z,100577.78
2023-04-10T23:04:03.728Z,100574.66
2023-04-10T23:06:13.713Z,100568.39
2023-04-10T23:08:25.726Z,100566.96
2023-04-10T23:10:32.754Z,100567.66
2023-04-10T23:12:43.361Z,100566.06
2023-04-10T23:14:53.571Z,100558.52
2023-04-10T23:17:04.975Z,100554.13
2023-04-10T23:19:14.638Z,100550.72
2023-04-10T23:21:33.071Z,100550.97
2023-04-10T23:23:41.863Z,100546.03
2023-04-10T23:25:48.874Z,100543.47
2023-04-10T23:28:00.641Z,100541.17
2023-04-10T23:30:07.373Z,100538.88
2023-04-10T23:32:14.823Z,100540.48
2023-04-10T23:34:24.453Z,100533.64
2023-04-10T23:36:31.693Z,100530.38
2023-04-10T23:38:43.048Z,100526.63
2023-04-10T23:40:52.814Z,100525.66
2023-04-10T23:43:02.407Z,100519.42
2023-04-10T23:45:09.541Z,100512.28
2023-04-10T23:47:17.191Z,100507.83
2023-04-10T23:49:32.225Z,100503.95
2023-04-10T23:51:42.743Z,100504.3
2023-04-10T23:53:52.114Z,100503.86
2023-04-10T23:56:00.987Z,100499.4
2023-04-10T23:58:09.509Z,100495
